Time;durP1;ratioP1;P1;durP2;ratioP2;P2;SDS_P1;SDS_P2;PMS_P1;PMS_P2;Temp;Humidity;BMP_temperature;BMP_pressure;BME280_temperature;BME280_humidity;BME280_pressure;Samples;Min_cycle;Max_cycle;Signal;HPM_P1;HPM_P2
2021/12/25 00:01:20;;;;;;;19.55;6.07;;;4.80;99.90;;;;;;5012322;28;20034;-74
2021/12/25 00:03:46;;;;;;;13.68;5.57;;;4.80;99.90;;;;;;4992193;28;20022;-74
2021/12/25 00:06:12;;;;;;;18.17;5.93;;;4.70;99.90;;;;;;4983149;28;20026;-74
2021/12/25 00:08:37;;;;;;;12.32;4.90;;;4.70;99.90;;;;;;5013560;28;20025;-74
2021/12/25 00:11:08;;;;;;;13.27;5.45;;;4.70;99.90;;;;;;5005558;28;20076;-74
2021/12/25 00:13:35;;;;;;;10.90;4.57;;;4.70;99.90;;;;;;5013521;28;20022;-74
2021/12/25 00:16:01;;;;;;;14.23;4.38;;;4.70;99.90;;;;;;5011432;28;20479;-73
2021/12/25 00:18:26;;;;;;;12.43;4.80;;;4.70;99.90;;;;;;5005715;28;20024;-74
2021/12/25 00:20:52;;;;;;;11.68;4.97;;;4.60;99.90;;;;;;5012773;28;20097;-74
2021/12/25 00:23:17;;;;;;;9.57;4.65;;;4.60;99.90;;;;;;5011430;28;20026;-75
2021/12/25 00:25:48;;;;;;;11.70;4.57;;;4.60;99.90;;;;;;5012529;28;20439;-75
2021/12/25 00:28:34;;;;;;;10.40;3.90;;;4.50;99.90;;;;;;5013337;28;20100;-76
2021/12/25 00:36:06;;;;;;;8.55;3.92;;;4.50;99.90;;;;;;5005245;28;20031;-75
2021/12/25 00:38:31;;;;;;;10.43;3.92;;;4.50;99.90;;;;;;5011017;28;20390;-75
2021/12/25 00:40:58;;;;;;;8.85;4.20;;;4.40;99.90;;;;;;5011298;28;20394;-74
2021/12/25 00:43:24;;;;;;;13.02;4.15;;;4.40;99.90;;;;;;5004350;28;20177;-75
2021/12/25 00:45:49;;;;;;;9.60;4.22;;;4.40;99.90;;;;;;5002302;28;20113;-75
2021/12/25 00:48:15;;;;;;;9.73;3.70;;;4.40;99.90;;;;;;4983434;28;20426;-75
2021/12/25 00:50:41;;;;;;;9.90;3.97;;;4.30;99.90;;;;;;4995142;28;20029;-75
2021/12/25 00:53:06;;;;;;;8.43;3.88;;;4.30;99.90;;;;;;4984588;28;20098;-75
2021/12/25 00:55:32;;;;;;;9.85;4.13;;;4.30;99.90;;;;;;5013214;28;20026;-75
2021/12/25 00:57:57;;;;;;;10.95;4.32;;;4.30;99.90;;;;;;5003266;28;20033;-75
2021/12/25 01:00:23;;;;;;;9.55;3.83;;;4.20;99.90;;;;;;4995225;28;20100;-75
2021/12/25 01:02:49;;;;;;;10.70;4.38;;;4.20;99.90;;;;;;5012266;28;20022;-75
2021/12/25 01:05:16;;;;;;;11.75;4.70;;;4.20;99.90;;;;;;5012767;28;20030;-75
2021/12/25 01:07:42;;;;;;;12.32;4.75;;;4.20;99.90;;;;;;5001571;28;20046;-75
2021/12/25 01:10:14;;;;;;;10.70;4.50;;;4.10;99.90;;;;;;5007337;28;20023;-75
2021/12/25 01:30:56;;;;;;;8.60;3.65;;;3.90;99.90;;;;;;5013106;28;20029;-75
2021/12/25 01:33:59;;;;;;;8.07;3.80;;;3.80;99.90;;;;;;5001794;28;20104;-75
2021/12/25 01:49:47;;;;;;;8.88;3.72;;;3.50;99.90;;;;;;5015786;28;20064;-75
2021/12/25 01:52:13;;;;;;;6.43;2.65;;;3.50;99.90;;;;;;5012925;28;20038;-75
2021/12/25 01:54:38;;;;;;;7.30;3.30;;;3.40;99.90;;;;;;5015569;28;20033;-75
2021/12/25 01:57:04;;;;;;;8.80;3.40;;;3.40;99.90;;;;;;5012644;28;20109;-75
2021/12/25 01:59:29;;;;;;;8.27;3.10;;;3.30;99.90;;;;;;5013627;28;20034;-75
2021/12/25 02:01:55;;;;;;;8.32;3.33;;;3.30;99.90;;;;;;5015677;28;20554;-75
2021/12/25 02:04:21;;;;;;;8.93;3.50;;;3.30;99.90;;;;;;5009671;28;20031;-75
2021/12/25 02:06:46;;;;;;;8.43;3.30;;;3.20;99.90;;;;;;5007330;28;20057;-75
2021/12/25 02:09:12;;;;;;;8.00;3.30;;;3.20;99.90;;;;;;5012460;28;20030;-75
2021/12/25 02:11:38;;;;;;;10.90;3.80;;;3.20;99.90;;;;;;4997184;28;20010;-75
2021/12/25 02:14:04;;;;;;;9.55;4.18;;;3.20;99.90;;;;;;5008606;28;20037;-75
2021/12/25 02:16:40;;;;;;;11.07;4.10;;;3.10;99.90;;;;;;5013005;28;20037;-75
2021/12/25 02:19:20;;;;;;;8.73;3.60;;;3.10;99.90;;;;;;5014717;28;20041;-74
2021/12/25 02:21:45;;;;;;;10.95;4.25;;;3.10;99.90;;;;;;5001359;28;20025;-75
2021/12/25 02:24:12;;;;;;;8.65;3.50;;;3.10;99.90;;;;;;5014632;28;20033;-74
2021/12/25 02:26:41;;;;;;;9.57;4.20;;;3.00;99.90;;;;;;4994549;28;20157;-75
2021/12/25 02:29:07;;;;;;;11.45;4.60;;;3.00;99.90;;;;;;5014993;28;20033;-75
2021/12/25 02:31:33;;;;;;;11.27;5.05;;;3.00;99.90;;;;;;5011738;28;20037;-75
2021/12/25 02:33:58;;;;;;;11.82;4.97;;;3.00;99.90;;;;;;5014163;28;20518;-75
2021/12/25 02:36:24;;;;;;;10.70;4.65;;;3.00;99.90;;;;;;5004939;28;20030;-75
2021/12/25 02:38:50;;;;;;;11.23;5.43;;;3.00;99.90;;;;;;5014766;28;20490;-75
2021/12/25 02:41:16;;;;;;;9.25;3.95;;;3.00;99.90;;;;;;5010971;28;20030;-75
2021/12/25 02:43:45;;;;;;;12.55;5.07;;;2.90;99.90;;;;;;4995678;28;20372;-74
2021/12/25 02:46:11;;;;;;;14.85;4.72;;;2.90;99.90;;;;;;5003923;28;20030;-75
2021/12/25 02:48:38;;;;;;;12.82;5.07;;;2.90;99.90;;;;;;5014868;28;20053;-75
2021/12/25 02:51:05;;;;;;;12.30;4.95;;;2.90;99.90;;;;;;5012759;28;20022;-75
2021/12/25 02:53:34;;;;;;;12.50;4.97;;;2.90;99.90;;;;;;5003276;28;20442;-74
2021/12/25 02:56:00;;;;;;;13.15;4.80;;;2.90;99.90;;;;;;5013264;28;20030;-75
2021/12/25 02:58:25;;;;;;;14.88;5.03;;;2.90;99.90;;;;;;5012847;28;20041;-75
2021/12/25 03:01:03;;;;;;;15.52;5.35;;;2.90;99.90;;;;;;4996492;28;20022;-75
2021/12/25 03:03:28;;;;;;;10.85;4.35;;;2.90;99.90;;;;;;4991745;28;20030;-75
2021/12/25 03:05:54;;;;;;;13.82;5.43;;;2.90;99.90;;;;;;5013411;28;20072;-75
2021/12/25 03:08:20;;;;;;;13.20;4.75;;;2.90;99.90;;;;;;5013076;28;20030;-75
2021/12/25 03:10:46;;;;;;;13.05;5.93;;;2.80;99.90;;;;;;5001707;28;20041;-75
2021/12/25 03:15:45;;;;;;;11.15;5.18;;;2.90;99.90;;;;;;5014065;28;20034;-75
2021/12/25 03:18:36;;;;;;;13.70;4.88;;;2.80;99.90;;;;;;5013950;28;20041;-75
2021/12/25 03:21:05;;;;;;;12.15;4.82;;;2.80;99.90;;;;;;5012324;28;20030;-75
2021/12/25 03:23:32;;;;;;;14.57;5.88;;;2.80;99.90;;;;;;5013903;28;20030;-75
2021/12/25 03:26:00;;;;;;;15.05;5.38;;;2.80;99.90;;;;;;5013338;28;20032;-75
2021/12/25 03:28:29;;;;;;;13.57;4.57;;;2.70;99.90;;;;;;4999692;28;20026;-75
2021/12/25 03:30:59;;;;;;;11.68;4.80;;;2.70;99.90;;;;;;5009594;28;20104;-75
2021/12/25 03:33:26;;;;;;;14.77;6.20;;;2.70;99.90;;;;;;5013396;28;20049;-75
2021/12/25 03:35:52;;;;;;;16.58;6.03;;;2.70;99.90;;;;;;4987376;28;20018;-75
2021/12/25 03:38:20;;;;;;;15.52;6.10;;;2.70;99.90;;;;;;4997979;28;20022;-75
2021/12/25 03:40:49;;;;;;;15.10;5.55;;;2.60;99.90;;;;;;5005105;28;20028;-75
2021/12/25 03:43:14;;;;;;;18.05;5.85;;;2.60;99.90;;;;;;5006276;28;20038;-75
2021/12/25 03:45:40;;;;;;;16.63;5.85;;;2.60;99.90;;;;;;5013306;28;20037;-75
2021/12/25 03:58:32;;;;;;;15.95;6.68;;;2.50;99.90;;;;;;5013284;28;20088;-75
2021/12/25 04:01:09;;;;;;;16.08;5.78;;;2.60;99.90;;;;;;5010260;28;20467;-75
2021/12/25 04:03:48;;;;;;;18.65;6.22;;;2.50;99.90;;;;;;5011762;28;20406;-75
2021/12/25 04:06:14;;;;;;;16.98;6.15;;;2.50;99.90;;;;;;4991418;28;20018;-75
2021/12/25 04:08:45;;;;;;;18.98;5.75;;;2.50;99.90;;;;;;5012636;28;20386;-75
2021/12/25 04:11:15;;;;;;;15.32;5.38;;;2.50;99.90;;;;;;5005413;28;20391;-74
2021/12/25 04:13:40;;;;;;;19.33;5.95;;;2.50;99.90;;;;;;5012843;28;20018;-75
2021/12/25 04:16:06;;;;;;;20.17;6.65;;;2.50;99.90;;;;;;5013073;28;20026;-75
2021/12/25 04:18:32;;;;;;;17.42;6.00;;;2.50;99.90;;;;;;4995750;28;20026;-75
2021/12/25 04:20:58;;;;;;;16.92;5.68;;;2.40;99.90;;;;;;5012747;28;20026;-74
2021/12/25 04:23:27;;;;;;;15.88;5.65;;;2.40;99.90;;;;;;5008239;28;20506;-75
2021/12/25 04:25:54;;;;;;;;;;;2.40;99.90;;;;;;4996004;28;20375;-75
2021/12/25 05:06:10;;;;;;;12.77;4.18;;;2.20;99.90;;;;;;4999395;28;20040;-75
2021/12/25 05:08:35;;;;;;;11.45;4.00;;;2.20;99.90;;;;;;4996988;28;20026;-75
2021/12/25 05:11:01;;;;;;;13.80;4.38;;;2.20;99.90;;;;;;5003379;28;20084;-74
2021/12/25 05:13:27;;;;;;;14.20;3.97;;;2.10;99.90;;;;;;5016365;28;20104;-75
2021/12/25 05:15:53;;;;;;;8.15;3.33;;;2.10;99.90;;;;;;4998266;28;20471;-75
2021/12/25 05:18:18;;;;;;;6.07;2.15;;;2.10;99.90;;;;;;5014519;28;20485;-75
2021/12/25 05:20:44;;;;;;;7.40;2.95;;;2.10;99.90;;;;;;5016482;28;20026;-74
2021/12/25 05:23:10;;;;;;;7.78;2.40;;;2.10;99.90;;;;;;5005068;28;20026;-75
2021/12/25 05:25:36;;;;;;;8.10;2.42;;;2.10;99.90;;;;;;5016336;28;20487;-75
2021/12/25 05:28:02;;;;;;;9.00;2.58;;;2.00;99.90;;;;;;5012775;28;20030;-75
2021/12/25 05:30:29;;;;;;;8.40;2.08;;;1.90;99.90;;;;;;5015602;28;20022;-75
2021/12/25 05:32:55;;;;;;;4.82;1.77;;;1.90;99.90;;;;;;4998212;28;20025;-75
2021/12/25 05:35:21;;;;;;;6.03;2.08;;;1.80;99.90;;;;;;5006145;28;20110;-75
2021/12/25 05:37:47;;;;;;;4.43;1.67;;;1.80;99.90;;;;;;5004232;28;20027;-75
2021/12/25 05:40:13;;;;;;;5.25;0.88;;;1.70;99.90;;;;;;5014001;28;20033;-75
2021/12/25 05:42:39;;;;;;;3.08;0.98;;;1.60;99.90;;;;;;4998177;28;20057;-75
2021/12/25 05:45:06;;;;;;;2.20;0.88;;;1.60;99.90;;;;;;5009638;28;20072;-75
2021/12/25 05:47:32;;;;;;;4.50;1.20;;;1.60;99.90;;;;;;5015211;28;20434;-75
2021/12/25 05:49:58;;;;;;;3.92;1.08;;;1.50;99.90;;;;;;5016232;28;20054;-75
2021/12/25 05:52:24;;;;;;;3.08;0.77;;;1.50;99.90;;;;;;5013773;28;20502;-75
2021/12/25 05:54:50;;;;;;;4.53;0.95;;;1.40;99.90;;;;;;5015639;28;20036;-75
2021/12/25 05:57:16;;;;;;;1.48;0.73;;;1.30;99.90;;;;;;5013839;28;20030;-75
2021/12/25 05:59:41;;;;;;;4.53;0.57;;;1.40;99.90;;;;;;5015000;28;20038;-75
2021/12/25 06:02:07;;;;;;;1.92;0.30;;;1.30;99.90;;;;;;5014761;28;20029;-75
2021/12/25 06:04:34;;;;;;;1.92;0.22;;;1.30;99.90;;;;;;5007199;28;20026;-75
2021/12/25 06:07:00;;;;;;;2.78;0.63;;;1.20;99.90;;;;;;5005395;28;20037;-75
2021/12/25 06:09:26;;;;;;;0.73;0.10;;;1.10;99.90;;;;;;5014678;28;20467;-75
2021/12/25 06:11:51;;;;;;;1.80;0.10;;;1.10;99.90;;;;;;5014483;28;20026;-75
2021/12/25 06:14:19;;;;;;;0.70;0.10;;;1.00;99.90;;;;;;5014396;28;20445;-75
2021/12/25 06:16:45;;;;;;;0.70;0.00;;;1.00;99.90;;;;;;5015416;28;20025;-75
2021/12/25 06:19:11;;;;;;;2.10;0.40;;;0.90;99.90;;;;;;5014714;28;20029;-75
2021/12/25 06:21:37;;;;;;;2.00;0.00;;;0.90;99.90;;;;;;4998553;28;20032;-75
2021/12/25 06:24:05;;;;;;;0.60;0.03;;;0.90;99.90;;;;;;5015383;28;20471;-75
2021/12/25 06:26:31;;;;;;;4.22;0.43;;;0.90;99.90;;;;;;5012099;28;20077;-75
2021/12/25 06:28:57;;;;;;;0.40;0.10;;;0.90;99.90;;;;;;4997691;28;20018;-75
2021/12/25 06:31:23;;;;;;;2.17;0.00;;;0.80;99.90;;;;;;5012672;28;20076;-75
2021/12/25 06:33:49;;;;;;;2.78;0.00;;;0.80;99.90;;;;;;5009822;28;20458;-75
2021/12/25 06:36:15;;;;;;;0.50;0.00;;;0.80;99.90;;;;;;5009936;28;20022;-75
2021/12/25 06:38:41;;;;;;;0.73;0.10;;;0.80;99.90;;;;;;5013328;28;20029;-74
2021/12/25 06:41:09;;;;;;;0.88;0.00;;;0.70;99.90;;;;;;4997230;28;20033;-74
2021/12/25 06:43:34;;;;;;;3.38;0.00;;;0.70;99.90;;;;;;4985304;28;20022;-75
2021/12/25 06:46:00;;;;;;;0.50;0.15;;;0.60;99.90;;;;;;5014541;28;20029;-75
2021/12/25 06:48:26;;;;;;;1.50;0.00;;;0.60;99.90;;;;;;5014328;28;20025;-75
2021/12/25 06:50:53;;;;;;;0.43;0.00;;;0.60;99.90;;;;;;5013676;28;20395;-75
2021/12/25 06:53:18;;;;;;;0.63;0.00;;;0.50;99.90;;;;;;4995916;28;20026;-75
2021/12/25 06:55:44;;;;;;;0.75;0.00;;;0.50;99.90;;;;;;4997577;28;20037;-75
2021/12/25 06:58:10;;;;;;;0.35;0.00;;;0.50;99.90;;;;;;5011283;28;20471;-75
2021/12/25 07:00:35;;;;;;;2.40;0.30;;;0.40;99.90;;;;;;4996994;28;20030;-75
2021/12/25 07:03:01;;;;;;;0.28;0.10;;;0.40;99.90;;;;;;5009809;28;20116;-75
2021/12/25 07:05:26;;;;;;;1.92;0.08;;;0.50;99.90;;;;;;5007204;28;20022;-75
2021/12/25 07:07:52;;;;;;;1.55;0.08;;;0.40;99.90;;;;;;5011177;28;20459;-75
2021/12/25 07:10:19;;;;;;;0.35;0.10;;;0.40;99.90;;;;;;4996892;28;20486;-75
2021/12/25 07:12:47;;;;;;;0.85;0.00;;;0.40;99.90;;;;;;4994777;28;20026;-75
2021/12/25 07:15:13;;;;;;;0.10;0.00;;;0.30;99.90;;;;;;5014144;28;20022;-74
2021/12/25 07:17:39;;;;;;;1.42;0.03;;;0.30;99.90;;;;;;5013266;28;20390;-75
2021/12/25 07:20:05;;;;;;;0.25;0.00;;;0.20;99.90;;;;;;5014038;28;20034;-75
2021/12/25 07:22:31;;;;;;;0.70;0.00;;;0.10;99.90;;;;;;5001372;28;20061;-75
2021/12/25 07:24:56;;;;;;;0.68;0.08;;;0.10;99.90;;;;;;5009892;28;20026;-75
2021/12/25 07:27:22;;;;;;;0.20;0.00;;;0.10;99.90;;;;;;5014364;28;20463;-75
2021/12/25 07:29:48;;;;;;;0.38;0.00;;;0.00;99.90;;;;;;5013371;28;20022;-75
2021/12/25 07:32:14;;;;;;;1.33;0.00;;;0.00;99.90;;;;;;5007132;28;20025;-75
2021/12/25 07:34:40;;;;;;;1.08;0.00;;;-0.10;99.90;;;;;;4995775;28;20486;-74
2021/12/25 07:37:06;;;;;;;1.70;0.28;;;-0.10;99.90;;;;;;4996429;28;20125;-75
2021/12/25 07:39:32;;;;;;;0.35;0.00;;;-0.20;99.90;;;;;;4986763;28;20037;-75
2021/12/25 07:41:58;;;;;;;0.30;0.00;;;-0.30;99.90;;;;;;5008050;28;20034;-74
2021/12/25 07:44:24;;;;;;;2.85;0.00;;;-0.40;99.90;;;;;;4986602;28;20022;-75
2021/12/25 07:46:50;;;;;;;0.77;0.00;;;-0.40;99.90;;;;;;5012178;28;20532;-75
2021/12/25 07:49:19;;;;;;;0.90;0.00;;;-0.50;99.90;;;;;;4992789;28;20037;-75
2021/12/25 07:51:45;;;;;;;0.20;0.00;;;-0.60;99.90;;;;;;4999957;28;20391;-75
2021/12/25 07:54:11;;;;;;;2.58;0.03;;;-0.50;99.90;;;;;;5013202;28;20076;-75
2021/12/25 07:56:37;;;;;;;0.55;0.00;;;-0.60;99.90;;;;;;5012068;28;20033;-75
2021/12/25 07:59:03;;;;;;;2.08;0.00;;;-0.60;99.90;;;;;;5013177;28;20036;-75
2021/12/25 08:01:31;;;;;;;1.27;0.05;;;-0.60;99.90;;;;;;5007058;28;20497;-75
2021/12/25 08:03:56;;;;;;;1.55;0.00;;;-0.70;99.90;;;;;;5011320;28;20026;-75
2021/12/25 08:06:22;;;;;;;0.22;0.00;;;-0.70;99.90;;;;;;4992594;28;20418;-75
2021/12/25 08:08:49;;;;;;;2.45;0.00;;;-0.70;99.90;;;;;;4992984;28;20022;-75
2021/12/25 08:11:15;;;;;;;0.22;0.00;;;-0.80;99.90;;;;;;5007724;28;20010;-75
2021/12/25 08:13:40;;;;;;;0.17;0.00;;;-0.80;99.90;;;;;;4994934;28;20026;-75
2021/12/25 08:16:06;;;;;;;1.42;0.00;;;-0.90;99.90;;;;;;4993757;28;20069;-76
2021/12/25 08:18:32;;;;;;;0.15;0.10;;;-0.90;99.90;;;;;;5002508;28;20042;-75
2021/12/25 08:20:59;;;;;;;3.20;0.00;;;-0.90;99.90;;;;;;4994516;28;20033;-76
2021/12/25 08:23:25;;;;;;;0.15;0.10;;;-1.00;99.90;;;;;;4993402;28;20022;-75
2021/12/25 08:25:50;;;;;;;0.15;0.00;;;-1.10;99.90;;;;;;4994655;28;20529;-75
2021/12/25 08:28:16;;;;;;;1.25;0.00;;;-1.00;99.90;;;;;;4993443;28;20023;-75
2021/12/25 08:30:42;;;;;;;0.30;0.03;;;-1.10;99.90;;;;;;5011985;28;20522;-75
2021/12/25 08:33:08;;;;;;;1.20;0.00;;;-1.00;99.90;;;;;;5012202;28;20109;-75
2021/12/25 08:35:34;;;;;;;3.17;0.20;;;-1.00;99.90;;;;;;5012448;28;20026;-76
2021/12/25 08:38:00;;;;;;;2.80;0.52;;;-1.00;99.90;;;;;;5011355;28;20499;-75
2021/12/25 08:40:26;;;;;;;0.80;0.10;;;-1.00;99.90;;;;;;5003381;28;20056;-75
2021/12/25 08:42:58;;;;;;;1.25;0.00;;;-0.90;99.90;;;;;;5014008;28;20026;-75
2021/12/25 08:45:42;;;;;;;1.55;0.03;;;-0.90;99.90;;;;;;5015707;28;20542;-75
2021/12/25 08:48:23;;;;;;;1.98;0.40;;;-0.90;99.90;;;;;;4997935;28;20044;-75
2021/12/25 08:50:55;;;;;;;0.55;0.10;;;-0.90;99.90;;;;;;4997715;28;20503;-75
2021/12/25 08:53:23;;;;;;;1.38;0.10;;;-0.90;99.90;;;;;;4963576;28;1064026;-75
2021/12/25 08:55:50;;;;;;;0.80;0.10;;;-0.90;99.90;;;;;;5014364;28;20083;-75
2021/12/25 08:58:17;;;;;;;3.58;0.00;;;-0.90;99.90;;;;;;5004430;28;20132;-76
2021/12/25 09:00:43;;;;;;;0.82;0.10;;;-0.90;99.90;;;;;;5015812;28;20041;-76
2021/12/25 09:03:10;;;;;;;1.85;0.10;;;-0.80;99.90;;;;;;5017453;28;20390;-78
2021/12/25 09:05:36;;;;;;;0.73;0.00;;;-0.80;99.90;;;;;;4999407;28;20176;-76
2021/12/25 09:08:02;;;;;;;0.80;0.00;;;-0.90;99.90;;;;;;5016938;28;20846;-77
2021/12/25 09:10:29;;;;;;;2.60;0.35;;;-0.80;99.90;;;;;;5000016;28;20021;-76
2021/12/25 09:12:56;;;;;;;0.30;0.03;;;-0.80;99.90;;;;;;4999699;28;20029;-75
2021/12/25 09:15:21;;;;;;;0.00;0.00;;;-0.80;99.90;;;;;;4998692;28;20118;-75
2021/12/25 09:17:47;;;;;;;1.15;0.10;;;-0.80;99.90;;;;;;5012745;28;20065;-76
2021/12/25 09:20:16;;;;;;;1.65;0.25;;;-0.80;99.90;;;;;;5011508;28;20037;-76
2021/12/25 09:22:42;;;;;;;0.70;0.00;;;-0.70;99.90;;;;;;5001027;28;20447;-76
2021/12/25 09:25:08;;;;;;;0.20;0.00;;;-0.70;99.90;;;;;;5015733;28;20077;-76
2021/12/25 09:27:34;;;;;;;0.35;0.00;;;-0.70;99.90;;;;;;5016712;28;20108;-76
2021/12/25 09:30:00;;;;;;;4.97;0.10;;;-0.70;99.90;;;;;;5016627;28;20026;-76
2021/12/25 09:32:25;;;;;;;1.80;0.08;;;-0.70;99.90;;;;;;4999002;28;20028;-76
2021/12/25 09:34:51;;;;;;;0.73;0.00;;;-0.70;99.90;;;;;;5016530;28;20466;-76
2021/12/25 09:37:18;;;;;;;0.38;0.00;;;-0.60;99.90;;;;;;5016167;28;20033;-76
2021/12/25 09:39:44;;;;;;;1.55;0.00;;;-0.60;99.90;;;;;;5003086;28;20110;-76
2021/12/25 09:42:10;;;;;;;1.00;0.00;;;-0.50;99.90;;;;;;4995976;28;20081;-76
2021/12/25 09:44:36;;;;;;;0.93;0.00;;;-0.50;99.90;;;;;;4997574;28;20145;-76
2021/12/25 09:47:02;;;;;;;0.70;0.00;;;-0.50;99.90;;;;;;4996957;28;20018;-76
2021/12/25 09:49:28;;;;;;;0.20;0.00;;;-0.40;99.90;;;;;;4997009;28;20022;-76
2021/12/25 09:51:53;;;;;;;1.95;0.00;;;-0.30;99.90;;;;;;4995630;28;20029;-76
2021/12/25 09:54:20;;;;;;;1.88;0.00;;;-0.30;99.90;;;;;;4996470;28;20034;-76
2021/12/25 09:56:48;;;;;;;0.00;0.00;;;-0.30;99.90;;;;;;4997025;28;20034;-76
2021/12/25 09:59:13;;;;;;;0.20;0.00;;;-0.30;99.90;;;;;;4997622;28;20117;-76
2021/12/25 10:01:45;;;;;;;0.38;0.00;;;-0.20;99.90;;;;;;4996774;28;20026;-76
2021/12/25 10:04:28;;;;;;;0.70;0.00;;;-0.20;99.90;;;;;;5003875;28;20391;-76
2021/12/25 10:06:54;;;;;;;0.75;0.00;;;-0.20;99.90;;;;;;4998594;28;20498;-76
2021/12/25 10:09:24;;;;;;;1.55;0.00;;;-0.20;99.90;;;;;;4998468;28;20120;-76
2021/12/25 10:12:04;;;;;;;0.10;0.00;;;-0.20;99.90;;;;;;5016059;28;20105;-77
2021/12/25 10:14:30;;;;;;;2.63;0.00;;;-0.20;99.90;;;;;;5012727;28;20052;-76
2021/12/25 10:16:55;;;;;;;0.35;0.00;;;-0.10;99.90;;;;;;5014537;28;20029;-76
2021/12/25 10:19:23;;;;;;;0.30;0.00;;;-0.10;99.90;;;;;;4998090;28;20160;-76
2021/12/25 10:22:06;;;;;;;0.82;0.00;;;-0.10;99.90;;;;;;5014647;28;20065;-76
2021/12/25 10:24:40;;;;;;;2.47;0.00;;;0.10;99.90;;;;;;4998157;28;20395;-76
2021/12/25 10:27:16;;;;;;;0.85;0.00;;;0.10;99.90;;;;;;4997609;28;20033;-76
2021/12/25 10:29:42;;;;;;;0.10;0.00;;;0.20;99.90;;;;;;5015856;28;20030;-76
2021/12/25 10:32:23;;;;;;;0.00;0.00;;;0.20;99.90;;;;;;5016072;28;20490;-76
2021/12/25 10:34:51;;;;;;;0.00;0.00;;;0.20;99.90;;;;;;4996155;28;20509;-76
2021/12/25 10:37:19;;;;;;;0.00;0.00;;;0.30;99.90;;;;;;5015247;28;20494;-76
2021/12/25 10:39:45;;;;;;;0.23;0.00;;;0.20;99.90;;;;;;5013753;28;20030;-76
2021/12/25 10:42:34;;;;;;;1.08;0.00;;;0.30;99.90;;;;;;5015034;28;20048;-76
2021/12/25 10:45:05;;;;;;;0.13;0.00;;;0.40;99.90;;;;;;5015173;28;20030;-76
2021/12/25 10:47:31;;;;;;;1.27;0.00;;;0.40;99.90;;;;;;4997804;28;20021;-76
2021/12/25 10:49:59;;;;;;;2.42;0.00;;;0.40;99.90;;;;;;5014237;28;20482;-76
2021/12/25 10:52:32;;;;;;;0.00;0.00;;;0.40;99.90;;;;;;5014578;28;20022;-76
2021/12/25 10:55:14;;;;;;;0.35;0.00;;;0.50;99.90;;;;;;5015658;28;20037;-76
2021/12/25 10:57:43;;;;;;;2.45;0.00;;;0.50;99.90;;;;;;5014651;28;20025;-76
2021/12/25 11:00:11;;;;;;;0.10;0.00;;;0.50;99.90;;;;;;5013440;28;20038;-76
2021/12/25 11:02:39;;;;;;;0.77;0.00;;;0.60;99.90;;;;;;5014781;28;20443;-77
2021/12/25 11:05:46;;;;;;;0.52;0.05;;;0.60;99.90;;;;;;5012224;28;20057;-76
2021/12/25 11:08:16;;;;;;;1.73;0.05;;;0.60;99.40;;;;;;4998103;28;20033;-77
2021/12/25 11:11:08;;;;;;;1.48;0.00;;;0.70;98.90;;;;;;4997555;28;20025;-76
2021/12/25 11:13:38;;;;;;;0.00;0.00;;;0.80;97.90;;;;;;5015231;28;20097;-76
2021/12/25 11:16:09;;;;;;;0.93;0.00;;;0.80;96.40;;;;;;5015224;28;20026;-76
2021/12/25 11:19:01;;;;;;;2.30;0.00;;;0.80;96.70;;;;;;5014636;28;20026;-76
2021/12/25 11:21:28;;;;;;;0.00;0.00;;;0.80;97.20;;;;;;4992989;28;20022;-76
2021/12/25 11:24:10;;;;;;;0.35;0.00;;;0.90;95.40;;;;;;5004201;28;20022;-76
2021/12/25 11:26:37;;;;;;;1.02;0.00;;;0.90;95.40;;;;;;5013872;28;20053;-77
2021/12/25 11:29:05;;;;;;;0.75;0.00;;;0.90;96.30;;;;;;5014496;28;20061;-76
2021/12/25 11:31:31;;;;;;;0.15;0.00;;;1.00;95.70;;;;;;5014664;28;20025;-76
2021/12/25 11:34:00;;;;;;;0.03;0.00;;;1.00;93.90;;;;;;5012560;28;20137;-76
2021/12/25 11:36:26;;;;;;;0.00;0.00;;;1.00;94.60;;;;;;5014731;28;20041;-76
2021/12/25 11:38:52;;;;;;;1.35;0.00;;;1.00;95.20;;;;;;5014361;28;20022;-76
2021/12/25 11:41:18;;;;;;;0.05;0.00;;;1.00;96.90;;;;;;4997071;28;20018;-76
2021/12/25 11:43:46;;;;;;;1.35;0.00;;;1.10;97.60;;;;;;5014776;28;20101;-77
2021/12/25 11:46:14;;;;;;;0.00;0.00;;;1.20;95.70;;;;;;4997642;28;20518;-76
2021/12/25 11:48:41;;;;;;;0.10;0.10;;;1.30;95.20;;;;;;5013232;28;20029;-76
2021/12/25 11:51:28;;;;;;;0.73;0.00;;;1.30;93.60;;;;;;4986846;28;20034;-76
2021/12/25 11:54:26;;;;;;;1.23;0.00;;;1.30;93.40;;;;;;5014501;28;20487;-77
2021/12/25 11:57:31;;;;;;;0.98;0.00;;;1.30;92.90;;;;;;5014120;28;20029;-77
2021/12/25 11:59:52;;;;;;;0.38;0.00;;;1.40;94.90;;;;;;5014554;28;20030;-76
2021/12/25 12:02:35;;;;;;;1.08;0.00;;;1.40;95.70;;;;;;5014060;28;20024;-77
2021/12/25 12:05:33;;;;;;;0.90;0.00;;;1.50;94.10;;;;;;4985193;28;20113;-76
2021/12/25 12:08:04;;;;;;;0.45;0.00;;;1.60;93.80;;;;;;4981019;28;20521;-76
2021/12/25 12:10:50;;;;;;;0.20;0.00;;;1.60;94.90;;;;;;5013427;28;20360;-76
2021/12/25 12:13:24;;;;;;;2.55;0.00;;;1.70;95.00;;;;;;4996431;28;20057;-77
2021/12/25 12:15:57;;;;;;;0.28;0.00;;;1.70;94.50;;;;;;5014021;28;20018;-76
2021/12/25 12:18:33;;;;;;;0.40;0.00;;;1.80;93.50;;;;;;5014155;28;20030;-75
2021/12/25 12:21:05;;;;;;;5.32;0.00;;;1.90;93.60;;;;;;5013875;28;20096;-76
2021/12/25 12:26:13;;;;;;;0.65;0.00;;;1.90;95.60;;;;;;5014784;28;20046;-75
2021/12/25 12:28:42;;;;;;;0.30;0.00;;;2.00;95.40;;;;;;5013881;28;20112;-75
2021/12/25 12:31:08;;;;;;;1.75;0.00;;;2.10;93.10;;;;;;4995773;28;20045;-77
2021/12/25 12:33:34;;;;;;;1.55;0.00;;;2.10;92.50;;;;;;5014338;28;20080;-76
2021/12/25 12:36:01;;;;;;;1.02;0.00;;;2.10;91.10;;;;;;5011651;28;20110;-76
2021/12/25 12:41:33;;;;;;;0.00;0.00;;;2.20;93.60;;;;;;5013121;28;20487;-75
2021/12/25 12:44:13;;;;;;;0.38;0.00;;;2.20;91.60;;;;;;5014105;28;20037;-75
2021/12/25 12:46:51;;;;;;;0.73;0.00;;;2.30;91.90;;;;;;5013669;28;20097;-76
2021/12/25 12:49:22;;;;;;;2.10;0.35;;;2.40;92.60;;;;;;4996086;28;20099;-76
2021/12/25 12:52:14;;;;;;;0.17;0.05;;;2.50;91.70;;;;;;5013579;28;20129;-75
2021/12/25 12:54:48;;;;;;;0.00;0.00;;;2.40;87.60;;;;;;4996013;28;20091;-75
2021/12/25 12:57:22;;;;;;;0.22;0.00;;;2.40;89.00;;;;;;5013298;28;20026;-75
2021/12/25 12:59:53;;;;;;;0.73;0.00;;;2.40;86.10;;;;;;4995780;28;20030;-75
2021/12/25 13:02:20;;;;;;;0.90;0.20;;;2.40;86.60;;;;;;5012188;28;20022;-75
2021/12/25 13:04:48;;;;;;;1.08;0.00;;;2.40;85.50;;;;;;5013598;28;20038;-75
2021/12/25 13:07:17;;;;;;;0.88;0.00;;;2.50;84.40;;;;;;5013658;28;20152;-75
2021/12/25 13:09:50;;;;;;;0.60;0.00;;;2.50;79.60;;;;;;5013925;28;20022;-75
2021/12/25 13:12:31;;;;;;;0.60;0.00;;;2.50;78.40;;;;;;5013350;28;20478;-74
2021/12/25 13:15:11;;;;;;;0.45;0.00;;;2.50;78.90;;;;;;5002214;28;20033;-75
2021/12/25 13:17:37;;;;;;;0.43;0.00;;;2.50;78.70;;;;;;5005992;28;20471;-75
2021/12/25 13:20:05;;;;;;;0.32;0.08;;;2.60;75.60;;;;;;5012134;28;20026;-75
2021/12/25 13:22:31;;;;;;;0.08;0.00;;;2.60;75.50;;;;;;5012987;28;20045;-76
2021/12/25 13:25:04;;;;;;;1.45;0.00;;;2.60;78.30;;;;;;5013264;28;20131;-75
2021/12/25 13:27:30;;;;;;;0.28;0.00;;;2.60;78.70;;;;;;5013255;28;20493;-75
2021/12/25 13:30:03;;;;;;;0.17;0.00;;;2.70;75.10;;;;;;4999347;28;20034;-75
2021/12/25 13:32:30;;;;;;;2.63;0.00;;;2.70;78.60;;;;;;5013732;28;20033;-75
2021/12/25 13:34:55;;;;;;;0.10;0.00;;;2.70;80.00;;;;;;5017345;28;20030;-75
2021/12/25 13:37:21;;;;;;;0.90;0.00;;;2.80;76.60;;;;;;5016843;28;20140;-75
2021/12/25 13:39:47;;;;;;;0.10;0.00;;;2.70;75.90;;;;;;4999346;28;20486;-75
2021/12/25 13:42:15;;;;;;;0.25;0.00;;;2.60;75.90;;;;;;5016656;28;20113;-75
2021/12/25 13:44:44;;;;;;;0.10;0.00;;;2.50;76.10;;;;;;5016780;28;20513;-75
2021/12/25 13:47:10;;;;;;;;;;;2.40;76.80;;;;;;5015653;28;20022;-74
2021/12/25 13:49:41;;;;;;;0.52;0.00;;;2.20;78.20;;;;;;5015999;28;20004;-74
2021/12/25 13:52:24;;;;;;;1.63;0.00;;;2.10;78.30;;;;;;5016685;28;20156;-74
2021/12/25 13:55:03;;;;;;;0.20;0.00;;;2.00;79.70;;;;;;5016614;28;20088;-74
2021/12/25 13:57:30;;;;;;;0.40;0.00;;;1.90;82.00;;;;;;5014881;28;20026;-74
2021/12/25 14:00:00;;;;;;;0.00;0.00;;;1.80;81.30;;;;;;5016343;28;20033;-74
2021/12/25 14:02:26;;;;;;;1.00;0.00;;;1.80;80.90;;;;;;5016098;28;20025;-74
2021/12/25 14:04:52;;;;;;;2.88;0.10;;;1.80;82.10;;;;;;5011037;28;20033;-75
2021/12/25 14:07:22;;;;;;;1.80;0.35;;;1.90;81.50;;;;;;4988224;28;20076;-74
2021/12/25 14:09:58;;;;;;;0.15;0.00;;;2.20;81.10;;;;;;5015819;28;20028;-75
2021/12/25 14:12:25;;;;;;;0.60;0.00;;;2.60;79.20;;;;;;5015778;28;20026;-75
2021/12/25 14:14:52;;;;;;;1.45;0.05;;;2.90;75.10;;;;;;5015813;28;20109;-75
2021/12/25 14:17:17;;;;;;;3.42;0.00;;;3.10;72.40;;;;;;5015160;28;20029;-75
2021/12/25 14:19:43;;;;;;;1.90;0.00;;;3.20;73.50;;;;;;5015272;28;20026;-75
2021/12/25 14:22:09;;;;;;;0.98;0.00;;;3.30;72.10;;;;;;5015491;28;20395;-75
2021/12/25 14:24:47;;;;;;;0.25;0.00;;;3.20;70.20;;;;;;5015400;28;20026;-75
2021/12/25 14:27:16;;;;;;;0.85;0.10;;;3.20;70.10;;;;;;4998076;28;20026;-75
2021/12/25 14:29:41;;;;;;;0.52;0.00;;;3.10;71.70;;;;;;5015492;28;20010;-75
2021/12/25 14:32:25;;;;;;;0.20;0.17;;;3.20;72.40;;;;;;5015804;28;20510;-75
2021/12/25 14:34:52;;;;;;;0.40;0.10;;;3.20;70.00;;;;;;5016268;28;20549;-75